createdAt,value
2023-01-29T13:44:29.959Z,1.20
2023-01-29T13:47:05.537Z,1.20
2023-01-29T13:51:23.033Z,1.10
2023-01-29T13:53:54.137Z,1.14
2023-01-29T13:56:35.405Z,1.20
2023-01-29T13:59:20.765Z,1.12
2023-01-29T14:01:51.390Z,1.20
2023-01-29T14:04:28.527Z,1.20
2023-01-29T14:06:57.872Z,1.30
2023-01-29T14:10:14.317Z,1.30
2023-01-29T14:12:48.022Z,1.24
2023-01-29T14:15:21.775Z,1.20
2023-01-29T14:18:00.550Z,1.30
2023-01-29T14:20:47.069Z,1.30
2023-01-29T14:36:00.274Z,1.50
2023-01-29T14:38:31.556Z,1.50
2023-01-29T14:41:04.610Z,1.44
2023-01-29T14:43:33.063Z,1.30
2023-01-29T14:46:35.909Z,1.30
2023-01-29T14:49:04.075Z,1.30
2023-01-29T14:51:36.807Z,1.30
2023-01-29T14:54:28.096Z,1.30
2023-01-29T14:57:02.629Z,1.20
2023-01-29T14:59:34.227Z,1.14
2023-01-29T15:02:06.443Z,1.10
2023-01-29T15:04:49.012Z,1.10
2023-01-29T15:07:30.921Z,1.04
2023-01-29T15:10:24.487Z,1.00
2023-01-29T15:12:56.922Z,0.90
2023-01-29T15:15:42.597Z,0.90
2023-01-29T15:18:18.451Z,0.90
2023-01-29T15:20:46.631Z,0.80
2023-01-29T15:23:26.154Z,0.86
2023-01-29T15:25:56.970Z,0.80
2023-01-29T15:28:35.652Z,0.80
2023-01-29T15:31:06.067Z,0.70
2023-01-29T15:33:34.251Z,0.70
2023-01-29T15:36:07.301Z,0.70
2023-01-29T15:38:36.299Z,0.70
2023-01-29T15:41:19.289Z,0.60
2023-01-29T15:43:49.252Z,0.66
2023-01-29T15:46:25.357Z,0.70
2023-01-29T15:48:54.532Z,0.60
2023-01-29T15:51:25.016Z,0.60
2023-01-29T15:53:54.555Z,0.60
2023-01-29T15:56:27.977Z,0.60
2023-01-29T15:58:58.048Z,0.60
2023-01-29T16:01:27.393Z,0.70
2023-01-29T16:03:59.119Z,0.60
2023-01-29T16:06:27.515Z,0.56
2023-01-29T16:08:55.816Z,0.50
2023-01-29T16:11:24.039Z,0.50
2023-01-29T16:13:52.223Z,0.50
2023-01-29T16:16:29.361Z,0.50
2023-01-29T16:19:00.761Z,0.58
2023-01-29T16:21:50.375Z,0.50
2023-01-29T16:24:22.535Z,0.50
2023-01-29T16:26:52.021Z,0.60
2023-01-29T16:29:24.132Z,0.60
2023-01-29T16:31:53.659Z,0.60
2023-01-29T16:34:25.092Z,0.52
2023-01-29T16:36:54.566Z,0.50
2023-01-29T16:39:33.937Z,0.50
2023-01-29T16:42:12.332Z,0.58
2023-01-29T16:44:51.155Z,0.60
2023-01-29T16:47:42.466Z,0.50
2023-01-29T16:50:54.256Z,0.52
2023-01-29T16:53:25.264Z,0.50
2023-01-29T16:55:53.262Z,0.50
2023-01-29T16:58:33.360Z,0.50
2023-01-29T17:01:04.102Z,0.48
2023-01-29T17:03:33.053Z,0.50
2023-01-29T17:06:21.721Z,0.40
2023-01-29T17:08:51.814Z,0.40
2023-01-29T17:11:32.090Z,0.40
2023-01-29T17:14:00.257Z,0.40
2023-01-29T17:16:29.569Z,0.50
2023-01-29T17:18:58.284Z,0.40
2023-01-29T17:21:26.411Z,0.48
2023-01-29T17:23:54.492Z,0.50
2023-01-29T17:26:22.609Z,0.50
2023-01-29T17:28:50.795Z,0.40
2023-01-29T17:31:18.867Z,0.40
2023-01-29T17:33:46.988Z,0.40
2023-01-29T17:36:16.876Z,0.40
2023-01-29T17:38:45.099Z,0.40
2023-01-29T17:41:31.303Z,0.34
2023-01-29T17:43:59.329Z,0.40
2023-01-29T17:46:28.024Z,0.40
2023-01-29T17:48:55.972Z,0.40
2023-01-29T17:51:25.037Z,0.40
2023-01-29T17:53:53.151Z,0.50
2023-01-29T17:56:29.667Z,0.50
2023-01-29T17:58:57.627Z,0.40
2023-01-29T18:01:25.762Z,0.40
2023-01-29T18:03:53.856Z,0.40
2023-01-29T18:06:30.805Z,0.32
2023-01-29T18:08:58.892Z,0.40
2023-01-29T18:11:27.001Z,0.30
2023-01-29T18:13:56.269Z,0.30
2023-01-29T18:16:24.553Z,0.30
2023-01-29T18:18:52.681Z,0.36
2023-01-29T18:21:20.771Z,0.30
2023-01-29T18:23:48.786Z,0.40
2023-01-29T18:26:17.587Z,0.30
2023-01-29T18:28:45.937Z,0.30
2023-01-29T18:31:14.509Z,0.30
2023-01-29T18:33:42.911Z,0.30
2023-01-29T18:36:11.343Z,0.40
2023-01-29T18:38:40.108Z,0.30
2023-01-29T18:41:12.788Z,0.30
2023-01-29T18:43:41.399Z,0.40
2023-01-29T18:46:09.768Z,0.30
2023-01-29T18:48:37.972Z,0.34
2023-01-29T18:51:08.845Z,0.38
2023-01-29T18:53:37.171Z,0.30
2023-01-29T18:56:05.932Z,0.30
2023-01-29T18:58:35.967Z,0.32
2023-01-29T19:01:16.934Z,0.30
2023-01-29T19:03:46.765Z,0.30
2023-01-29T19:06:14.979Z,0.30
2023-01-29T19:08:44.069Z,0.20
2023-01-29T19:11:12.984Z,0.30
2023-01-29T19:13:42.765Z,0.30
2023-01-29T19:16:11.158Z,0.30
2023-01-29T19:18:40.050Z,0.30
2023-01-29T19:21:12.870Z,0.28
2023-01-29T19:23:45.455Z,0.20
2023-01-29T19:26:15.650Z,0.20
2023-01-29T19:28:43.702Z,0.20
2023-01-29T19:31:11.701Z,0.20
2023-01-29T19:33:40.185Z,0.14
2023-01-29T19:36:25.949Z,0.10
2023-01-29T19:38:56.173Z,0.10
2023-01-29T19:41:24.958Z,0.04
2023-01-29T19:43:56.886Z,0.00
2023-01-29T19:46:24.960Z,0.00
2023-01-29T19:48:57.284Z,0.00
2023-01-29T19:51:27.588Z,0.00
2023-01-29T19:53:56.803Z,0.00
2023-01-29T19:56:30.544Z,0.00
2023-01-29T19:58:58.526Z,0.00
2023-01-29T20:01:29.813Z,0.00
2023-01-29T20:03:58.645Z,-0.10
2023-01-29T20:06:33.264Z,-0.06
2023-01-29T20:09:03.241Z,0.00
2023-01-29T20:11:32.518Z,0.04
2023-01-29T20:14:00.641Z,0.00
2023-01-29T20:16:29.420Z,0.00
2023-01-29T20:19:14.599Z,0.10
2023-01-29T20:21:46.579Z,0.00
2023-01-29T20:24:14.964Z,-0.06
2023-01-29T20:26:43.813Z,-0.10
2023-01-29T20:29:21.932Z,-0.14
2023-01-29T20:31:50.191Z,-0.10
2023-01-29T20:34:22.460Z,0.00
2023-01-29T20:36:50.418Z,-0.10
2023-01-29T20:39:21.240Z,-0.08
2023-01-29T20:41:54.331Z,-0.10
2023-01-29T20:44:22.338Z,-0.18
2023-01-29T20:46:51.072Z,-0.24
2023-01-29T20:49:19.376Z,-0.30
2023-01-29T20:51:47.413Z,-0.30
2023-01-29T20:54:15.682Z,-0.30
2023-01-29T20:56:45.251Z,-0.30
2023-01-29T20:59:15.252Z,-0.30
2023-01-29T21:01:44.926Z,-0.30
2023-01-29T21:04:13.140Z,-0.32
2023-01-29T21:06:41.243Z,-0.40
2023-01-29T21:09:13.801Z,-0.40
2023-01-29T21:12:06.466Z,-0.40
2023-01-29T21:14:38.197Z,-0.40
2023-01-29T21:17:06.619Z,-0.40
2023-01-29T21:19:34.581Z,-0.40
2023-01-29T21:22:02.909Z,-0.44
2023-01-29T21:24:31.219Z,-0.48
2023-01-29T21:26:59.203Z,-0.50
2023-01-29T21:29:27.196Z,-0.50
2023-01-29T21:31:57.660Z,-0.50
2023-01-29T21:34:26.113Z,-0.50
2023-01-29T21:36:54.134Z,-0.40
2023-01-29T21:39:24.846Z,-0.50
2023-01-29T21:42:12.050Z,-0.50
2023-01-29T21:44:40.012Z,-0.60
2023-01-29T21:47:14.430Z,-0.68
2023-01-29T21:49:43.283Z,-0.70
2023-01-29T21:52:12.290Z,-0.64
2023-01-29T21:54:40.908Z,-0.64
2023-01-29T21:57:12.593Z,-0.64
2023-01-29T21:59:40.557Z,-0.60
2023-01-29T22:02:15.282Z,-0.60
2023-01-29T22:04:44.105Z,-0.54
2023-01-29T22:07:12.555Z,-0.50
2023-01-29T22:09:40.655Z,-0.62
2023-01-29T22:12:08.898Z,-0.60
